createdAt,value
2023-02-17T00:01:32.447Z,70.60
2023-02-17T00:04:00.966Z,70.70
2023-02-17T00:06:30.213Z,70.83
2023-02-17T00:09:02.023Z,70.91
2023-02-17T00:11:31.156Z,70.88
2023-02-17T00:14:00.391Z,70.87
2023-02-17T00:16:28.597Z,70.90
2023-02-17T00:18:58.860Z,70.71
2023-02-17T00:21:29.155Z,70.88
2023-02-17T00:23:57.655Z,70.84
2023-02-17T00:26:25.853Z,70.89
2023-02-17T00:28:55.117Z,70.92
2023-02-17T00:31:25.202Z,71.15
2023-02-17T00:33:55.649Z,71.14
2023-02-17T00:36:24.101Z,71.34
2023-02-17T00:38:53.864Z,71.38
2023-02-17T00:41:22.696Z,71.26
2023-02-17T00:43:51.033Z,71.22
2023-02-17T00:46:19.128Z,71.17
2023-02-17T00:48:48.754Z,71.28
2023-02-17T00:51:17.394Z,71.27
2023-02-17T00:53:46.087Z,71.25
2023-02-17T00:56:14.428Z,71.40
2023-02-17T00:58:42.746Z,71.47
2023-02-17T01:01:11.431Z,71.54
2023-02-17T01:03:42.345Z,71.64
2023-02-17T01:06:11.654Z,71.70
2023-02-17T01:08:41.812Z,71.52
2023-02-17T01:11:17.786Z,71.43
2023-02-17T01:13:46.572Z,71.47
2023-02-17T01:16:23.386Z,71.51
2023-02-17T01:18:51.527Z,71.41
2023-02-17T01:21:22.682Z,71.31
2023-02-17T01:23:52.081Z,71.17
2023-02-17T01:26:22.087Z,71.30
2023-02-17T01:28:50.537Z,71.25
2023-02-17T01:31:19.095Z,71.36
2023-02-17T01:33:48.754Z,71.44
2023-02-17T01:36:17.952Z,71.47
2023-02-17T01:38:48.706Z,71.73
2023-02-17T01:41:21.059Z,71.82
2023-02-17T01:44:21.934Z,71.96
2023-02-17T01:46:51.466Z,72.30
2023-02-17T01:49:24.487Z,72.44
2023-02-17T01:52:04.237Z,72.52
2023-02-17T01:54:46.571Z,72.57
2023-02-17T01:57:16.767Z,72.44
2023-02-17T01:59:45.530Z,72.32
2023-02-17T02:02:13.747Z,72.46
2023-02-17T02:04:44.518Z,72.36
2023-02-17T02:07:26.171Z,72.24
2023-02-17T02:09:56.476Z,72.16
2023-02-17T02:12:35.759Z,72.23
2023-02-17T02:15:08.979Z,72.19
2023-02-17T02:17:59.262Z,72.21
2023-02-17T02:20:33.333Z,72.32
2023-02-17T02:23:26.566Z,72.22
2023-02-17T02:26:14.528Z,72.30
2023-02-17T02:28:55.090Z,72.47
2023-02-17T02:31:30.322Z,72.38
2023-02-17T02:34:04.553Z,72.48
2023-02-17T02:36:35.522Z,72.47
2023-02-17T02:39:16.410Z,72.47
2023-02-17T02:42:02.138Z,72.53
2023-02-17T02:44:34.702Z,72.63
2023-02-17T02:47:06.475Z,72.56
2023-02-17T02:49:35.952Z,72.76
2023-02-17T02:52:23.465Z,72.89
2023-02-17T02:55:14.401Z,73.08
2023-02-17T02:58:02.012Z,73.29
2023-02-17T03:00:46.527Z,73.48
2023-02-17T03:03:27.553Z,73.61
2023-02-17T03:06:00.549Z,73.56
2023-02-17T03:08:44.184Z,73.65
2023-02-17T03:11:12.359Z,73.71
2023-02-17T03:13:41.273Z,74.09
2023-02-17T03:16:14.790Z,74.14
2023-02-17T03:18:43.135Z,74.22
2023-02-17T03:21:14.573Z,74.37
2023-02-17T03:23:43.911Z,74.47
2023-02-17T03:26:12.145Z,74.54
2023-02-17T03:29:57.983Z,74.76
2023-02-17T03:32:26.056Z,74.87
2023-02-17T03:34:54.289Z,74.98
2023-02-17T03:37:22.307Z,75.16
2023-02-17T03:39:50.539Z,75.16
2023-02-17T03:42:18.615Z,75.26
2023-02-17T03:44:46.603Z,75.51
2023-02-17T03:47:14.622Z,75.53
2023-02-17T03:49:43.843Z,75.31
2023-02-17T03:52:11.934Z,75.26
2023-02-17T03:54:39.921Z,75.22
2023-02-17T03:57:07.914Z,75.38
2023-02-17T03:59:36.267Z,75.51
2023-02-17T04:02:09.345Z,75.56
2023-02-17T04:04:39.345Z,75.59
2023-02-17T04:07:07.816Z,75.64
2023-02-17T04:09:38.501Z,75.87
2023-02-17T04:12:06.713Z,75.78
2023-02-17T04:14:34.741Z,75.60
2023-02-17T04:17:03.010Z,75.38
2023-02-17T04:19:31.378Z,75.63
2023-02-17T04:22:00.895Z,75.96
2023-02-17T04:24:29.511Z,75.83
2023-02-17T04:26:58.139Z,76.06
2023-02-17T04:29:26.169Z,76.12
2023-02-17T04:31:54.152Z,76.15
2023-02-17T04:34:22.645Z,76.23
2023-02-17T04:36:50.660Z,75.96
2023-02-17T04:39:19.301Z,75.91
2023-02-17T04:41:47.459Z,76.05
2023-02-17T04:44:15.955Z,75.96
2023-02-17T04:46:44.086Z,76.00
2023-02-17T04:49:12.215Z,76.21
2023-02-17T04:51:40.581Z,76.04
2023-02-17T04:54:09.292Z,76.39
2023-02-17T04:56:38.609Z,76.38
2023-02-17T04:59:07.329Z,76.24
2023-02-17T05:01:35.650Z,76.09
2023-02-17T05:04:08.569Z,76.26
2023-02-17T05:06:37.711Z,76.40
2023-02-17T05:09:06.161Z,76.54
2023-02-17T05:11:34.972Z,76.59
2023-02-17T05:14:02.881Z,76.55
2023-02-17T05:16:30.865Z,76.69
2023-02-17T05:18:59.400Z,76.68
2023-02-17T05:21:29.942Z,76.67
2023-02-17T05:23:57.999Z,76.51
2023-02-17T05:26:25.992Z,76.51
2023-02-17T05:28:54.444Z,76.67
2023-02-17T05:31:22.902Z,76.71
2023-02-17T05:33:54.612Z,77.00
2023-02-17T05:36:23.211Z,77.20
2023-02-17T05:38:52.257Z,77.25
2023-02-17T05:41:20.479Z,77.26
2023-02-17T05:43:49.450Z,77.22
2023-02-17T05:46:17.721Z,77.01
2023-02-17T05:48:48.768Z,77.26
2023-02-17T05:51:17.422Z,77.34
2023-02-17T05:53:46.428Z,77.43
2023-02-17T05:56:14.762Z,77.55
2023-02-17T05:58:44.457Z,77.56
2023-02-17T06:01:13.262Z,77.70
2023-02-17T06:03:41.713Z,77.76
2023-02-17T06:06:09.787Z,77.84
2023-02-17T06:08:37.924Z,77.53
2023-02-17T06:11:11.300Z,77.43
2023-02-17T06:13:39.562Z,77.39
2023-02-17T06:16:08.376Z,77.45
2023-02-17T06:18:36.585Z,77.41
2023-02-17T06:21:05.138Z,77.32
2023-02-17T06:23:33.702Z,77.40
2023-02-17T06:26:01.648Z,77.38
2023-02-17T06:28:29.843Z,76.89
2023-02-17T06:30:57.996Z,76.41
2023-02-17T06:33:26.342Z,75.96
2023-02-17T06:35:54.696Z,75.85
2023-02-17T06:38:23.010Z,75.53
2023-02-17T06:40:51.292Z,75.06
2023-02-17T06:43:22.108Z,74.78
2023-02-17T06:45:50.301Z,74.85
2023-02-17T06:48:18.970Z,74.72
2023-02-17T06:50:49.810Z,74.52
2023-02-17T06:53:17.918Z,74.46
2023-02-17T06:55:46.033Z,74.27
2023-02-17T06:58:15.052Z,74.35
2023-02-17T07:00:43.099Z,73.93
2023-02-17T07:03:12.132Z,73.94
2023-02-17T07:05:40.342Z,74.24
2023-02-17T07:08:08.783Z,74.27
2023-02-17T07:10:37.714Z,74.36
2023-02-17T07:13:08.963Z,74.30
2023-02-17T07:15:37.862Z,74.26
2023-02-17T07:18:06.245Z,74.25
2023-02-17T07:20:35.856Z,74.37
2023-02-17T07:23:04.961Z,74.18
2023-02-17T07:25:34.464Z,74.31
2023-02-17T07:28:02.648Z,74.17
2023-02-17T07:30:32.726Z,74.00
2023-02-17T07:33:00.944Z,73.86
2023-02-17T07:35:29.214Z,73.98
2023-02-17T07:37:58.413Z,73.84
2023-02-17T07:40:27.097Z,73.83
2023-02-17T07:42:56.588Z,73.62
2023-02-17T07:45:24.666Z,73.27
2023-02-17T07:47:52.737Z,73.36
2023-02-17T07:50:20.764Z,73.60
2023-02-17T07:52:48.925Z,73.46
2023-02-17T07:55:17.129Z,73.40
2023-02-17T07:57:45.226Z,73.24
2023-02-17T08:00:14.222Z,73.22
2023-02-17T08:02:42.342Z,73.17
2023-02-17T08:05:10.810Z,73.49
2023-02-17T08:07:39.501Z,72.99
2023-02-17T08:10:27.374Z,72.99
2023-02-17T08:13:14.893Z,73.16
2023-02-17T08:15:43.135Z,73.06
2023-02-17T08:18:11.826Z,73.10
2023-02-17T08:20:40.249Z,73.10
2023-02-17T08:23:10.256Z,73.01
2023-02-17T08:25:38.349Z,73.01
2023-02-17T08:28:12.493Z,72.98
2023-02-17T08:30:40.996Z,72.97
2023-02-17T08:33:09.421Z,72.98
2023-02-17T08:35:39.128Z,72.98
2023-02-17T08:38:07.726Z,72.84
2023-02-17T08:40:36.910Z,72.72
2023-02-17T08:43:08.809Z,72.96
2023-02-17T08:45:38.299Z,72.96
2023-02-17T08:48:07.084Z,72.65
2023-02-17T08:50:35.438Z,72.60
2023-02-17T08:53:04.479Z,72.76
2023-02-17T08:55:47.302Z,72.66
2023-02-17T08:58:16.720Z,72.54
2023-02-17T09:00:46.332Z,72.32
2023-02-17T09:03:15.141Z,72.48
2023-02-17T09:05:46.360Z,72.38
2023-02-17T09:08:15.658Z,72.47
2023-02-17T09:10:46.628Z,72.40
2023-02-17T09:13:27.552Z,72.03
2023-02-17T09:15:56.789Z,72.05
2023-02-17T09:18:26.724Z,72.00
2023-02-17T09:20:55.542Z,71.93
2023-02-17T09:23:24.050Z,71.98
2023-02-17T09:26:02.652Z,71.91
2023-02-17T09:28:32.580Z,71.79
2023-02-17T09:31:14.683Z,72.01
2023-02-17T09:33:43.432Z,71.94
2023-02-17T09:36:13.685Z,72.08
2023-02-17T09:38:42.742Z,71.96
2023-02-17T09:41:24.845Z,71.75
2023-02-17T09:43:53.146Z,71.84
2023-02-17T09:46:36.081Z,71.98
2023-02-17T09:49:09.609Z,72.02
2023-02-17T09:51:49.054Z,71.99
2023-02-17T09:54:26.765Z,71.95
2023-02-17T09:56:55.998Z,71.54
2023-02-17T09:59:29.908Z,71.47
2023-02-17T10:01:58.424Z,71.54
2023-02-17T10:04:39.531Z,71.46
2023-02-17T10:07:12.434Z,71.30
2023-02-17T10:09:56.129Z,71.45
2023-02-17T10:12:26.312Z,71.16
2023-02-17T10:15:04.372Z,71.15
2023-02-17T10:17:47.581Z,70.92
2023-02-17T10:20:34.897Z,70.95
2023-02-17T10:23:07.681Z,70.74
2023-02-17T10:25:57.995Z,70.90
2023-02-17T10:28:52.100Z,70.81
2023-02-17T10:31:27.547Z,70.35
2023-02-17T10:34:06.026Z,70.19
2023-02-17T10:36:54.621Z,70.42
2023-02-17T10:39:35.012Z,70.29
2023-02-17T10:42:03.841Z,70.42
2023-02-17T10:44:34.719Z,70.30
2023-02-17T10:47:02.785Z,70.22
2023-02-17T10:49:41.994Z,70.29
2023-02-17T10:52:12.125Z,70.33
2023-02-17T10:54:44.130Z,70.22
2023-02-17T10:57:12.877Z,70.39
2023-02-17T10:59:42.980Z,70.16
2023-02-17T11:02:34.616Z,69.97
2023-02-17T11:05:02.704Z,69.95
2023-02-17T11:07:38.886Z,69.78
2023-02-17T11:10:28.717Z,69.73
2023-02-17T11:12:58.853Z,69.38
2023-02-17T11:15:51.267Z,69.46
2023-02-17T11:18:21.716Z,69.37
2023-02-17T11:20:50.409Z,69.33
2023-02-17T11:23:23.152Z,69.50
2023-02-17T11:26:03.810Z,69.41
2023-02-17T11:28:32.022Z,69.20
2023-02-17T11:31:02.790Z,69.22
2023-02-17T11:33:38.313Z,69.15
2023-02-17T11:36:07.680Z,69.02
2023-02-17T11:38:40.082Z,68.95
2023-02-17T11:41:09.586Z,69.09
2023-02-17T11:43:40.015Z,69.39
2023-02-17T11:46:18.032Z,69.29
2023-02-17T11:49:07.760Z,69.27
2023-02-17T11:51:43.688Z,68.92
2023-02-17T11:54:18.086Z,69.11
2023-02-17T11:57:26.397Z,69.01
2023-02-17T12:00:20.875Z,69.09
2023-02-17T12:03:10.212Z,68.88
2023-02-17T12:05:53.783Z,68.91
2023-02-17T12:08:38.507Z,69.03
2023-02-17T12:11:37.584Z,68.93
2023-02-17T12:14:29.735Z,69.04
2023-02-17T12:17:06.404Z,68.84
2023-02-17T12:20:04.804Z,68.63
2023-02-17T12:22:39.069Z,69.04
2023-02-17T12:25:16.632Z,69.12
2023-02-17T12:28:06.823Z,69.07
2023-02-17T12:30:39.217Z,69.21
2023-02-17T12:33:13.381Z,69.28
2023-02-17T12:35:51.188Z,69.35
2023-02-17T12:39:16.031Z,69.43
2023-02-17T12:41:51.370Z,69.75
2023-02-17T12:44:35.133Z,69.79
2023-02-17T12:47:10.278Z,70.00
2023-02-17T12:49:48.848Z,70.21
2023-02-17T12:52:20.020Z,70.11
2023-02-17T12:54:53.061Z,70.00
2023-02-17T12:58:00.814Z,69.78
2023-02-17T13:00:29.892Z,69.79
2023-02-17T13:02:59.003Z,69.91
2023-02-17T13:05:43.615Z,69.96
2023-02-17T13:08:32.188Z,69.94
2023-02-17T13:11:10.924Z,69.75
2023-02-17T13:13:38.932Z,69.78
2023-02-17T13:16:11.995Z,69.76
2023-02-17T13:18:44.648Z,69.87
2023-02-17T13:21:25.111Z,69.91
2023-02-17T13:24:14.816Z,70.17
2023-02-17T13:26:43.814Z,70.03
2023-02-17T13:29:19.478Z,70.35
2023-02-17T13:31:53.063Z,70.32
2023-02-17T13:34:26.223Z,70.44
2023-02-17T13:36:54.733Z,70.46
2023-02-17T13:39:26.884Z,70.14
2023-02-17T13:41:59.247Z,70.44
2023-02-17T13:44:33.999Z,70.43
2023-02-17T13:47:04.060Z,70.45
2023-02-17T13:49:35.368Z,70.39
2023-02-17T13:52:08.514Z,70.48
2023-02-17T13:54:37.522Z,70.51
2023-02-17T13:57:05.806Z,70.70
2023-02-17T13:59:37.044Z,70.70
2023-02-17T14:02:35.015Z,70.56
2023-02-17T14:05:28.583Z,70.66
2023-02-17T14:08:00.568Z,70.74
2023-02-17T14:10:28.570Z,70.63
2023-02-17T14:12:58.174Z,70.74
2023-02-17T14:15:27.982Z,70.59
2023-02-17T14:17:56.142Z,70.75
2023-02-17T14:20:32.861Z,70.74
2023-02-17T14:23:14.203Z,70.79
2023-02-17T14:25:46.573Z,70.75
2023-02-17T14:28:26.878Z,70.72
2023-02-17T14:30:56.236Z,70.89
2023-02-17T14:33:25.084Z,70.88
2023-02-17T14:35:57.882Z,71.00
2023-02-17T14:38:35.323Z,71.09
2023-02-17T14:41:05.225Z,71.21
2023-02-17T14:43:33.528Z,71.35
2023-02-17T14:46:01.540Z,71.38
2023-02-17T14:48:29.956Z,71.73
2023-02-17T14:50:58.615Z,71.67
2023-02-17T14:53:32.799Z,71.70
2023-02-17T14:56:09.013Z,71.81
2023-02-17T14:58:37.269Z,71.85
2023-02-17T15:01:05.962Z,71.77
2023-02-17T15:03:34.244Z,71.83
2023-02-17T15:06:02.515Z,71.92
2023-02-17T15:08:33.638Z,71.76
2023-02-17T15:11:02.447Z,71.85
2023-02-17T15:13:31.861Z,71.87
2023-02-17T15:16:08.364Z,71.75
2023-02-17T15:18:37.606Z,71.77
2023-02-17T15:21:28.938Z,71.89
2023-02-17T15:24:19.196Z,72.34
2023-02-17T15:26:48.375Z,72.48
2023-02-17T15:29:27.737Z,73.05
2023-02-17T15:32:00.041Z,73.39
2023-02-17T15:34:33.615Z,73.73
2023-02-17T15:37:01.973Z,73.97
2023-02-17T15:39:30.365Z,74.52
2023-02-17T15:42:00.794Z,74.98
2023-02-17T15:47:50.652Z,75.97
2023-02-17T15:50:22.881Z,76.26
2023-02-17T15:52:50.962Z,76.67
2023-02-17T15:55:20.951Z,77.11
2023-02-17T15:57:51.391Z,77.59
2023-02-17T16:00:21.134Z,78.01
2023-02-17T16:02:49.649Z,78.33
2023-02-17T16:05:19.109Z,78.42
2023-02-17T16:07:48.265Z,79.07
2023-02-17T16:10:21.062Z,79.44
2023-02-17T16:12:50.652Z,79.95
2023-02-17T16:15:20.813Z,80.14
2023-02-17T16:17:52.711Z,80.55
2023-02-17T16:20:26.267Z,80.68
2023-02-17T16:22:54.339Z,80.59
2023-02-17T16:25:45.408Z,80.79
2023-02-17T16:28:20.169Z,81.20
2023-02-17T16:30:49.599Z,81.49
2023-02-17T16:33:17.814Z,81.63
2023-02-17T16:35:46.077Z,81.62
2023-02-17T16:38:21.568Z,81.74
2023-02-17T16:40:52.619Z,82.04
2023-02-17T16:43:22.982Z,82.64
2023-02-17T16:45:59.120Z,82.88
2023-02-17T16:48:29.186Z,83.02
2023-02-17T16:50:57.451Z,83.23
2023-02-17T16:53:26.008Z,83.32
2023-02-17T16:55:55.176Z,83.54
2023-02-17T16:58:24.646Z,84.07
2023-02-17T17:00:54.298Z,84.36
2023-02-17T17:03:22.718Z,84.65
2023-02-17T17:05:51.922Z,84.69
2023-02-17T17:08:21.908Z,84.90
2023-02-17T17:10:53.384Z,85.24
2023-02-17T17:13:23.915Z,85.40
2023-02-17T17:15:52.199Z,85.50
2023-02-17T17:18:21.453Z,85.41
2023-02-17T17:20:49.897Z,85.34
2023-02-17T17:23:20.319Z,85.63
2023-02-17T17:25:48.806Z,85.89
2023-02-17T17:28:19.144Z,86.12
2023-02-17T17:30:48.642Z,85.91
2023-02-17T17:33:16.894Z,85.79
2023-02-17T17:35:46.186Z,85.91
2023-02-17T17:38:15.647Z,86.01
2023-02-17T17:40:53.618Z,86.04
2023-02-17T17:43:22.968Z,86.08
2023-02-17T17:45:51.128Z,85.93
2023-02-17T17:48:19.746Z,86.23
2023-02-17T17:50:49.105Z,86.65
2023-02-17T17:53:17.306Z,86.99
2023-02-17T17:55:46.610Z,87.12
2023-02-17T17:58:16.376Z,86.99
2023-02-17T18:00:44.386Z,87.18
2023-02-17T18:03:12.592Z,87.38
2023-02-17T18:05:40.664Z,87.56
2023-02-17T18:08:09.523Z,87.49
2023-02-17T18:10:38.524Z,87.57
2023-02-17T18:13:09.136Z,87.73
2023-02-17T18:15:38.410Z,88.14
2023-02-17T18:18:06.662Z,88.21
2023-02-17T18:20:34.992Z,88.34
2023-02-17T18:23:03.220Z,88.21
2023-02-17T18:25:32.160Z,88.45
2023-02-17T18:28:00.703Z,88.61
2023-02-17T18:30:29.194Z,88.76
2023-02-17T18:32:58.560Z,88.75
2023-02-17T18:35:27.045Z,88.50
2023-02-17T18:37:55.332Z,88.70
2023-02-17T18:40:23.905Z,89.13
2023-02-17T18:42:52.287Z,89.36
2023-02-17T18:45:20.978Z,89.56
2023-02-17T18:47:49.127Z,89.40
2023-02-17T18:50:18.236Z,89.41
2023-02-17T18:52:47.136Z,89.56
2023-02-17T18:55:15.901Z,89.66
2023-02-17T18:57:45.017Z,89.27
2023-02-17T19:00:15.742Z,89.10
2023-02-17T19:02:46.259Z,89.24
2023-02-17T19:05:15.375Z,89.47
2023-02-17T19:07:46.854Z,89.69
2023-02-17T19:10:15.954Z,89.70
2023-02-17T19:12:46.335Z,89.77
2023-02-17T19:15:21.172Z,89.94
2023-02-17T19:17:49.332Z,90.03
2023-02-17T19:20:19.119Z,89.99
2023-02-17T19:22:47.216Z,89.99
2023-02-17T19:25:16.117Z,89.80
2023-02-17T19:27:44.589Z,90.15
2023-02-17T19:30:13.256Z,90.41
2023-02-17T19:32:41.871Z,90.53
2023-02-17T19:35:11.685Z,90.39
2023-02-17T19:37:40.527Z,90.51
2023-02-17T19:40:10.140Z,90.80
2023-02-17T19:42:40.430Z,90.77
2023-02-17T19:45:09.490Z,90.72
2023-02-17T19:47:37.882Z,90.41
2023-02-17T19:50:07.361Z,90.72
2023-02-17T19:52:37.311Z,90.76
2023-02-17T19:55:06.800Z,90.79
2023-02-17T19:57:35.184Z,90.74
2023-02-17T20:00:04.885Z,90.88
2023-02-17T20:02:34.444Z,91.10
2023-02-17T20:05:03.710Z,91.29
2023-02-17T20:07:32.178Z,91.21
2023-02-17T20:10:00.432Z,91.18
2023-02-17T20:12:28.930Z,91.21
2023-02-17T20:14:57.387Z,91.39
2023-02-17T20:17:25.486Z,91.03
2023-02-17T20:19:54.172Z,90.95
2023-02-17T20:22:22.560Z,91.21
2023-02-17T20:24:51.136Z,91.04
2023-02-17T20:27:19.820Z,90.93
2023-02-17T20:29:48.270Z,90.83
2023-02-17T20:32:16.330Z,90.68
2023-02-17T20:34:44.813Z,90.66
2023-02-17T20:37:17.606Z,90.79
2023-02-17T20:39:46.887Z,90.70
2023-02-17T20:42:15.518Z,90.74
2023-02-17T20:44:44.945Z,90.81
2023-02-17T20:47:13.328Z,90.97
2023-02-17T20:49:43.520Z,90.78
2023-02-17T20:52:11.795Z,90.95
2023-02-17T20:54:40.698Z,91.07
2023-02-17T20:57:15.332Z,90.87
2023-02-17T20:59:45.868Z,90.63
2023-02-17T21:02:14.337Z,90.51
2023-02-17T21:04:42.603Z,90.96
2023-02-17T21:07:11.227Z,91.35
2023-02-17T21:09:45.426Z,91.12
2023-02-17T21:12:14.036Z,91.38
2023-02-17T21:14:42.102Z,91.38
2023-02-17T21:17:10.623Z,91.60
2023-02-17T21:19:40.752Z,91.45
2023-02-17T21:22:08.784Z,91.50
2023-02-17T21:24:37.520Z,91.50
2023-02-17T21:27:06.248Z,91.79
2023-02-17T21:29:34.458Z,92.03
2023-02-17T21:32:02.603Z,91.59
2023-02-17T21:34:30.756Z,91.53
2023-02-17T21:36:59.010Z,91.73
2023-02-17T21:39:27.150Z,92.02
2023-02-17T21:41:55.303Z,92.01
2023-02-17T21:44:58.957Z,92.14
2023-02-17T21:47:27.038Z,92.34
2023-02-17T21:49:55.747Z,92.69
2023-02-17T21:52:23.754Z,92.63
2023-02-17T21:54:53.301Z,92.44
2023-02-17T21:57:21.297Z,92.76
2023-02-17T21:59:53.768Z,93.00
2023-02-17T22:02:21.686Z,92.94
2023-02-17T22:04:49.769Z,92.89
2023-02-17T22:07:18.148Z,93.12
2023-02-17T22:09:46.414Z,93.24
2023-02-17T22:12:14.689Z,93.49
2023-02-17T22:14:42.846Z,93.45
2023-02-17T22:17:14.005Z,93.48
2023-02-17T22:19:42.024Z,93.96
2023-02-17T22:22:10.054Z,93.77
2023-02-17T22:24:38.242Z,93.70
2023-02-17T22:27:06.250Z,93.53
2023-02-17T22:29:34.939Z,93.84
2023-02-17T22:32:03.167Z,93.93
2023-02-17T22:34:32.656Z,93.78
2023-02-17T22:37:00.640Z,93.51
2023-02-17T22:39:28.811Z,93.67
2023-02-17T22:41:57.293Z,93.75
2023-02-17T22:44:25.357Z,93.55
2023-02-17T22:46:53.296Z,93.54
2023-02-17T22:49:21.430Z,93.83
2023-02-17T22:51:49.976Z,94.13
2023-02-17T22:54:18.672Z,94.08
2023-02-17T22:56:46.652Z,93.94
2023-02-17T22:59:14.717Z,94.01
2023-02-17T23:01:46.318Z,94.11
2023-02-17T23:04:15.093Z,94.19
2023-02-17T23:06:43.250Z,93.89
2023-02-17T23:09:15.724Z,94.12
2023-02-17T23:11:57.706Z,94.32
2023-02-17T23:14:29.205Z,94.45
2023-02-17T23:17:02.967Z,94.38
2023-02-17T23:19:31.147Z,94.25
2023-02-17T23:22:01.756Z,94.44
2023-02-17T23:24:30.136Z,94.75
2023-02-17T23:27:00.291Z,94.72
2023-02-17T23:29:29.351Z,94.62
2023-02-17T23:31:58.167Z,94.97
2023-02-17T23:34:26.415Z,94.74
2023-02-17T23:36:54.487Z,94.38
2023-02-17T23:39:22.752Z,94.59
2023-02-17T23:41:52.077Z,94.80
2023-02-17T23:44:21.172Z,94.72
2023-02-17T23:46:49.343Z,94.54
2023-02-17T23:49:17.920Z,94.40
2023-02-17T23:51:46.976Z,94.42
2023-02-17T23:54:15.474Z,94.50
2023-02-17T23:56:43.738Z,94.34
2023-02-17T23:59:12.237Z,94.61
